首页
METAR-TAF:

METAR-TAF

机场 :

內排國際機場

河內, 越南

纬度: 21-01N, 经度: 105-48E, 海拔: 6米

当前天气观测

该预报发布于23分钟前的10:30 UTC
风速11节,风向东转东南
温度 33°C
湿度 63%
气压 1003 hPa
能见度10公里或以上
1500米以下无云,无积雨云

METAR: VVNB 241030Z 12011KT CAVOK 33/25 Q1003 NOSIG

时间: 17:53 (10:53 UTC)

预报

该预报发布于5小时和53分钟前的05:00 UTC
预报有效从24日的 06点(UTC)到 25日的 06点(UTC)
风速7节,风向东南
能見度: 9000
散云层高于2000英尺

TAF: VVNB 240500Z 2406/2506 14007KT 9000 SCT020

超过4000个机场的气象观测和天气预报(METAR&TAF报告)。

可查询的气象台以黄色和红色小点在地图上表示。

将鼠标移到小点上方,可查看气象台名称。

然后点击查看天气观测和预报。

如需切换地图:点击带黑十字的绿色按钮放大地图;点击带横线的绿色按钮缩小地图;或者点击绿色箭头查看邻近地区的地图。


METAR-TAF: